sensor_id;sensor_type;location;lat;lon;timestamp;P1;durP1;ratioP1;P2;durP2;ratioP2
61685;SDS011;47592;45.904;8.978;2022-11-04T00:01:16;4.80;;;1.27;;
61685;SDS011;47592;45.904;8.978;2022-11-04T00:03:41;4.18;;;1.23;;
61685;SDS011;47592;45.904;8.978;2022-11-04T00:06:07;3.63;;;1.10;;
61685;SDS011;47592;45.904;8.978;2022-11-04T00:08:32;4.20;;;1.30;;
61685;SDS011;47592;45.904;8.978;2022-11-04T00:10:58;3.08;;;1.10;;
61685;SDS011;47592;45.904;8.978;2022-11-04T00:13:43;3.03;;;1.02;;
61685;SDS011;47592;45.904;8.978;2022-11-04T00:16:09;3.75;;;1.17;;
61685;SDS011;47592;45.904;8.978;2022-11-04T00:18:53;4.50;;;1.40;;
61685;SDS011;47592;45.904;8.978;2022-11-04T00:21:19;3.05;;;1.10;;
61685;SDS011;47592;45.904;8.978;2022-11-04T00:24:03;3.28;;;1.10;;
61685;SDS011;47592;45.904;8.978;2022-11-04T00:26:48;4.10;;;1.40;;
61685;SDS011;47592;45.904;8.978;2022-11-04T00:29:32;3.17;;;1.10;;
61685;SDS011;47592;45.904;8.978;2022-11-04T00:31:57;2.25;;;0.80;;
61685;SDS011;47592;45.904;8.978;2022-11-04T00:34:41;2.20;;;0.80;;
61685;SDS011;47592;45.904;8.978;2022-11-04T00:37:06;2.08;;;0.80;;
61685;SDS011;47592;45.904;8.978;2022-11-04T00:39:32;5.20;;;1.10;;
61685;SDS011;47592;45.904;8.978;2022-11-04T00:41:57;2.60;;;0.88;;
61685;SDS011;47592;45.904;8.978;2022-11-04T00:44:23;2.47;;;0.80;;
61685;SDS011;47592;45.904;8.978;2022-11-04T00:46:48;3.20;;;0.85;;
61685;SDS011;47592;45.904;8.978;2022-11-04T00:49:13;2.15;;;0.70;;
61685;SDS011;47592;45.904;8.978;2022-11-04T00:51:39;2.75;;;0.80;;
61685;SDS011;47592;45.904;8.978;2022-11-04T00:54:04;1.05;;;0.40;;
61685;SDS011;47592;45.904;8.978;2022-11-04T00:56:30;1.58;;;0.60;;
61685;SDS011;47592;45.904;8.978;2022-11-04T00:58:58;2.10;;;0.60;;
61685;SDS011;47592;45.904;8.978;2022-11-04T01:01:23;1.80;;;0.65;;
61685;SDS011;47592;45.904;8.978;2022-11-04T01:03:50;2.15;;;0.70;;
61685;SDS011;47592;45.904;8.978;2022-11-04T01:06:17;1.85;;;0.65;;
61685;SDS011;47592;45.904;8.978;2022-11-04T01:08:43;2.10;;;0.68;;
61685;SDS011;47592;45.904;8.978;2022-11-04T01:11:09;3.65;;;0.80;;
61685;SDS011;47592;45.904;8.978;2022-11-04T01:13:35;2.47;;;0.73;;
61685;SDS011;47592;45.904;8.978;2022-11-04T01:16:02;1.58;;;0.60;;
61685;SDS011;47592;45.904;8.978;2022-11-04T01:18:28;1.65;;;0.70;;
61685;SDS011;47592;45.904;8.978;2022-11-04T01:20:54;1.73;;;0.60;;
61685;SDS011;47592;45.904;8.978;2022-11-04T01:23:19;3.20;;;0.60;;
61685;SDS011;47592;45.904;8.978;2022-11-04T01:25:45;1.70;;;0.55;;
61685;SDS011;47592;45.904;8.978;2022-11-04T01:28:14;1.92;;;0.70;;
61685;SDS011;47592;45.904;8.978;2022-11-04T01:30:39;1.63;;;0.57;;
61685;SDS011;47592;45.904;8.978;2022-11-04T01:33:05;3.22;;;0.77;;
61685;SDS011;47592;45.904;8.978;2022-11-04T01:35:30;1.60;;;0.52;;
61685;SDS011;47592;45.904;8.978;2022-11-04T01:37:59;1.48;;;0.65;;
61685;SDS011;47592;45.904;8.978;2022-11-04T01:40:25;1.95;;;0.63;;
61685;SDS011;47592;45.904;8.978;2022-11-04T01:42:50;2.20;;;0.77;;
61685;SDS011;47592;45.904;8.978;2022-11-04T01:45:16;2.20;;;0.60;;
61685;SDS011;47592;45.904;8.978;2022-11-04T01:50:26;1.90;;;0.63;;
61685;SDS011;47592;45.904;8.978;2022-11-04T01:52:56;1.88;;;0.60;;
61685;SDS011;47592;45.904;8.978;2022-11-04T01:55:28;2.58;;;0.60;;
61685;SDS011;47592;45.904;8.978;2022-11-04T01:57:58;1.95;;;0.60;;
61685;SDS011;47592;45.904;8.978;2022-11-04T02:00:25;1.17;;;0.55;;
61685;SDS011;47592;45.904;8.978;2022-11-04T02:05:19;1.80;;;0.65;;
61685;SDS011;47592;45.904;8.978;2022-11-04T02:07:47;1.27;;;0.50;;
61685;SDS011;47592;45.904;8.978;2022-11-04T02:10:15;1.45;;;0.60;;
61685;SDS011;47592;45.904;8.978;2022-11-04T02:12:40;1.05;;;0.40;;
61685;SDS011;47592;45.904;8.978;2022-11-04T02:24:02;1.80;;;0.45;;
61685;SDS011;47592;45.904;8.978;2022-11-04T02:37:31;2.53;;;0.40;;
61685;SDS011;47592;45.904;8.978;2022-11-04T02:43:00;0.70;;;0.20;;
61685;SDS011;47592;45.904;8.978;2022-11-04T02:45:46;0.32;;;0.10;;
61685;SDS011;47592;45.904;8.978;2022-11-04T02:53:37;0.35;;;0.15;;
61685;SDS011;47592;45.904;8.978;2022-11-04T02:56:05;0.22;;;0.10;;
61685;SDS011;47592;45.904;8.978;2022-11-04T02:58:32;3.83;;;0.20;;
61685;SDS011;47592;45.904;8.978;2022-11-04T03:03:27;0.25;;;0.20;;
61685;SDS011;47592;45.904;8.978;2022-11-04T03:05:55;0.20;;;0.20;;
61685;SDS011;47592;45.904;8.978;2022-11-04T03:08:44;1.92;;;0.40;;
61685;SDS011;47592;45.904;8.978;2022-11-04T03:11:15;3.50;;;0.20;;
61685;SDS011;47592;45.904;8.978;2022-11-04T03:13:53;2.58;;;0.30;;
61685;SDS011;47592;45.904;8.978;2022-11-04T03:16:43;0.53;;;0.20;;
61685;SDS011;47592;45.904;8.978;2022-11-04T03:22:15;0.70;;;0.20;;
61685;SDS011;47592;45.904;8.978;2022-11-04T03:24:42;1.45;;;0.30;;
61685;SDS011;47592;45.904;8.978;2022-11-04T03:29:47;0.80;;;0.30;;
61685;SDS011;47592;45.904;8.978;2022-11-04T03:35:09;0.20;;;0.20;;
61685;SDS011;47592;45.904;8.978;2022-11-04T03:37:35;0.98;;;0.40;;
61685;SDS011;47592;45.904;8.978;2022-11-04T03:40:01;0.73;;;0.20;;
61685;SDS011;47592;45.904;8.978;2022-11-04T03:42:27;0.98;;;0.38;;
61685;SDS011;47592;45.904;8.978;2022-11-04T03:44:55;0.35;;;0.10;;
61685;SDS011;47592;45.904;8.978;2022-11-04T03:47:22;1.83;;;0.32;;
61685;SDS011;47592;45.904;8.978;2022-11-04T03:49:49;1.00;;;0.10;;
61685;SDS011;47592;45.904;8.978;2022-11-04T03:52:16;0.47;;;0.20;;
61685;SDS011;47592;45.904;8.978;2022-11-04T03:54:43;0.50;;;0.10;;
61685;SDS011;47592;45.904;8.978;2022-11-04T04:00:03;0.57;;;0.20;;
61685;SDS011;47592;45.904;8.978;2022-11-04T04:03:05;0.10;;;0.10;;
61685;SDS011;47592;45.904;8.978;2022-11-04T04:05:34;0.38;;;0.10;;
61685;SDS011;47592;45.904;8.978;2022-11-04T04:13:15;0.40;;;0.17;;
61685;SDS011;47592;45.904;8.978;2022-11-04T04:15:46;0.30;;;0.20;;
61685;SDS011;47592;45.904;8.978;2022-11-04T04:18:41;0.60;;;0.20;;
61685;SDS011;47592;45.904;8.978;2022-11-04T04:21:13;1.75;;;0.32;;
61685;SDS011;47592;45.904;8.978;2022-11-04T04:23:41;0.82;;;0.20;;
61685;SDS011;47592;45.904;8.978;2022-11-04T04:26:47;0.38;;;0.10;;
61685;SDS011;47592;45.904;8.978;2022-11-04T04:29:32;0.47;;;0.20;;
61685;SDS011;47592;45.904;8.978;2022-11-04T04:31:59;0.47;;;0.10;;
61685;SDS011;47592;45.904;8.978;2022-11-04T04:34:28;0.20;;;0.10;;
61685;SDS011;47592;45.904;8.978;2022-11-04T04:39:24;0.63;;;0.20;;
61685;SDS011;47592;45.904;8.978;2022-11-04T04:42:14;0.25;;;0.10;;
61685;SDS011;47592;45.904;8.978;2022-11-04T04:44:58;0.25;;;0.10;;
61685;SDS011;47592;45.904;8.978;2022-11-04T04:47:23;0.10;;;0.10;;
61685;SDS011;47592;45.904;8.978;2022-11-04T04:49:55;0.70;;;0.20;;
61685;SDS011;47592;45.904;8.978;2022-11-04T04:52:25;0.45;;;0.15;;
61685;SDS011;47592;45.904;8.978;2022-11-04T04:54:52;0.03;;;0.00;;
61685;SDS011;47592;45.904;8.978;2022-11-04T04:57:18;0.15;;;0.10;;
61685;SDS011;47592;45.904;8.978;2022-11-04T04:59:43;0.30;;;0.13;;
61685;SDS011;47592;45.904;8.978;2022-11-04T05:02:09;1.48;;;0.30;;
61685;SDS011;47592;45.904;8.978;2022-11-04T05:04:34;0.50;;;0.10;;
61685;SDS011;47592;45.904;8.978;2022-11-04T05:07:00;0.10;;;0.00;;
61685;SDS011;47592;45.904;8.978;2022-11-04T05:09:25;0.63;;;0.20;;
61685;SDS011;47592;45.904;8.978;2022-11-04T05:11:51;0.10;;;0.10;;
61685;SDS011;47592;45.904;8.978;2022-11-04T05:14:16;0.55;;;0.20;;
61685;SDS011;47592;45.904;8.978;2022-11-04T05:16:42;0.40;;;0.10;;
61685;SDS011;47592;45.904;8.978;2022-11-04T05:19:07;0.43;;;0.20;;
61685;SDS011;47592;45.904;8.978;2022-11-04T05:21:33;0.32;;;0.10;;
61685;SDS011;47592;45.904;8.978;2022-11-04T05:23:58;0.22;;;0.10;;
61685;SDS011;47592;45.904;8.978;2022-11-04T05:26:23;0.40;;;0.10;;
61685;SDS011;47592;45.904;8.978;2022-11-04T05:28:49;1.02;;;0.30;;
61685;SDS011;47592;45.904;8.978;2022-11-04T05:31:14;0.90;;;0.28;;
61685;SDS011;47592;45.904;8.978;2022-11-04T05:33:40;0.73;;;0.28;;
61685;SDS011;47592;45.904;8.978;2022-11-04T05:36:10;0.65;;;0.20;;
61685;SDS011;47592;45.904;8.978;2022-11-04T05:38:37;0.13;;;0.10;;
61685;SDS011;47592;45.904;8.978;2022-11-04T05:41:04;0.52;;;0.25;;
61685;SDS011;47592;45.904;8.978;2022-11-04T05:43:30;1.13;;;0.28;;
61685;SDS011;47592;45.904;8.978;2022-11-04T05:45:57;0.10;;;0.10;;
61685;SDS011;47592;45.904;8.978;2022-11-04T05:48:22;0.28;;;0.10;;
61685;SDS011;47592;45.904;8.978;2022-11-04T05:50:48;0.15;;;0.10;;
61685;SDS011;47592;45.904;8.978;2022-11-04T05:53:13;0.20;;;0.10;;
61685;SDS011;47592;45.904;8.978;2022-11-04T05:55:39;1.55;;;0.20;;
61685;SDS011;47592;45.904;8.978;2022-11-04T05:58:04;0.10;;;0.10;;
61685;SDS011;47592;45.904;8.978;2022-11-04T06:00:30;0.32;;;0.10;;
61685;SDS011;47592;45.904;8.978;2022-11-04T06:02:55;1.55;;;0.20;;
61685;SDS011;47592;45.904;8.978;2022-11-04T06:05:21;0.10;;;0.10;;
61685;SDS011;47592;45.904;8.978;2022-11-04T06:07:47;0.22;;;0.10;;
61685;SDS011;47592;45.904;8.978;2022-11-04T06:10:13;0.22;;;0.10;;
61685;SDS011;47592;45.904;8.978;2022-11-04T06:12:38;0.32;;;0.10;;
61685;SDS011;47592;45.904;8.978;2022-11-04T06:15:04;1.27;;;0.20;;
61685;SDS011;47592;45.904;8.978;2022-11-04T06:17:30;0.25;;;0.10;;
61685;SDS011;47592;45.904;8.978;2022-11-04T06:19:55;0.63;;;0.20;;
61685;SDS011;47592;45.904;8.978;2022-11-04T06:22:21;0.35;;;0.20;;
61685;SDS011;47592;45.904;8.978;2022-11-04T06:24:46;0.30;;;0.13;;
61685;SDS011;47592;45.904;8.978;2022-11-04T06:27:12;0.28;;;0.10;;
61685;SDS011;47592;45.904;8.978;2022-11-04T06:29:38;0.57;;;0.13;;
61685;SDS011;47592;45.904;8.978;2022-11-04T06:32:13;0.45;;;0.17;;
61685;SDS011;47592;45.904;8.978;2022-11-04T06:34:40;0.10;;;0.10;;
61685;SDS011;47592;45.904;8.978;2022-11-04T06:37:06;0.20;;;0.20;;
61685;SDS011;47592;45.904;8.978;2022-11-04T06:39:32;0.40;;;0.10;;
61685;SDS011;47592;45.904;8.978;2022-11-04T06:41:57;0.57;;;0.20;;
61685;SDS011;47592;45.904;8.978;2022-11-04T06:44:23;0.52;;;0.20;;
61685;SDS011;47592;45.904;8.978;2022-11-04T06:46:50;0.17;;;0.15;;
61685;SDS011;47592;45.904;8.978;2022-11-04T06:49:16;0.25;;;0.10;;
61685;SDS011;47592;45.904;8.978;2022-11-04T06:51:44;1.13;;;0.17;;
61685;SDS011;47592;45.904;8.978;2022-11-04T06:54:10;0.20;;;0.10;;
61685;SDS011;47592;45.904;8.978;2022-11-04T06:56:35;1.38;;;0.10;;
61685;SDS011;47592;45.904;8.978;2022-11-04T06:59:01;0.10;;;0.10;;
61685;SDS011;47592;45.904;8.978;2022-11-04T07:01:28;0.45;;;0.10;;
61685;SDS011;47592;45.904;8.978;2022-11-04T07:03:56;0.10;;;0.10;;
61685;SDS011;47592;45.904;8.978;2022-11-04T07:06:22;0.05;;;0.05;;
61685;SDS011;47592;45.904;8.978;2022-11-04T07:08:49;0.22;;;0.10;;
61685;SDS011;47592;45.904;8.978;2022-11-04T07:11:16;0.10;;;0.10;;
61685;SDS011;47592;45.904;8.978;2022-11-04T07:13:42;0.20;;;0.10;;
61685;SDS011;47592;45.904;8.978;2022-11-04T07:16:08;0.60;;;0.20;;
61685;SDS011;47592;45.904;8.978;2022-11-04T07:18:33;0.20;;;0.15;;
61685;SDS011;47592;45.904;8.978;2022-11-04T07:20:59;0.25;;;0.13;;
61685;SDS011;47592;45.904;8.978;2022-11-04T07:23:25;0.15;;;0.10;;
61685;SDS011;47592;45.904;8.978;2022-11-04T07:25:51;0.32;;;0.13;;
61685;SDS011;47592;45.904;8.978;2022-11-04T07:28:18;0.38;;;0.20;;
61685;SDS011;47592;45.904;8.978;2022-11-04T07:30:44;0.63;;;0.20;;
61685;SDS011;47592;45.904;8.978;2022-11-04T07:33:10;0.43;;;0.20;;
61685;SDS011;47592;45.904;8.978;2022-11-04T07:35:36;0.77;;;0.20;;
61685;SDS011;47592;45.904;8.978;2022-11-04T07:38:01;0.55;;;0.20;;
61685;SDS011;47592;45.904;8.978;2022-11-04T07:40:28;0.50;;;0.20;;
61685;SDS011;47592;45.904;8.978;2022-11-04T07:42:54;0.73;;;0.15;;
61685;SDS011;47592;45.904;8.978;2022-11-04T07:45:19;0.40;;;0.15;;
61685;SDS011;47592;45.904;8.978;2022-11-04T07:47:45;0.38;;;0.20;;
61685;SDS011;47592;45.904;8.978;2022-11-04T07:50:11;0.20;;;0.20;;
61685;SDS011;47592;45.904;8.978;2022-11-04T07:52:36;0.65;;;0.22;;
61685;SDS011;47592;45.904;8.978;2022-11-04T07:55:01;0.65;;;0.20;;
61685;SDS011;47592;45.904;8.978;2022-11-04T07:57:27;0.60;;;0.20;;
61685;SDS011;47592;45.904;8.978;2022-11-04T07:59:53;2.58;;;0.40;;
61685;SDS011;47592;45.904;8.978;2022-11-04T08:02:18;1.15;;;0.25;;
61685;SDS011;47592;45.904;8.978;2022-11-04T08:04:44;0.55;;;0.15;;
61685;SDS011;47592;45.904;8.978;2022-11-04T08:07:09;0.45;;;0.10;;
61685;SDS011;47592;45.904;8.978;2022-11-04T08:09:35;0.38;;;0.17;;
61685;SDS011;47592;45.904;8.978;2022-11-04T08:12:01;0.43;;;0.20;;
61685;SDS011;47592;45.904;8.978;2022-11-04T08:14:27;0.20;;;0.20;;
61685;SDS011;47592;45.904;8.978;2022-11-04T08:16:52;0.50;;;0.17;;
61685;SDS011;47592;45.904;8.978;2022-11-04T08:19:18;0.40;;;0.13;;
61685;SDS011;47592;45.904;8.978;2022-11-04T08:21:43;0.47;;;0.22;;
61685;SDS011;47592;45.904;8.978;2022-11-04T08:24:09;0.30;;;0.20;;
61685;SDS011;47592;45.904;8.978;2022-11-04T08:26:34;0.65;;;0.20;;
61685;SDS011;47592;45.904;8.978;2022-11-04T08:28:59;0.32;;;0.10;;
61685;SDS011;47592;45.904;8.978;2022-11-04T08:31:28;1.52;;;0.40;;
61685;SDS011;47592;45.904;8.978;2022-11-04T08:33:54;1.77;;;0.20;;
61685;SDS011;47592;45.904;8.978;2022-11-04T08:36:31;1.33;;;0.30;;
61685;SDS011;47592;45.904;8.978;2022-11-04T08:38:58;0.20;;;0.10;;
61685;SDS011;47592;45.904;8.978;2022-11-04T08:41:26;0.93;;;0.22;;
61685;SDS011;47592;45.904;8.978;2022-11-04T08:43:57;0.90;;;0.30;;
61685;SDS011;47592;45.904;8.978;2022-11-04T08:46:25;0.55;;;0.25;;
61685;SDS011;47592;45.904;8.978;2022-11-04T08:48:52;0.45;;;0.20;;
61685;SDS011;47592;45.904;8.978;2022-11-04T08:51:19;1.85;;;0.60;;
61685;SDS011;47592;45.904;8.978;2022-11-04T08:53:46;1.77;;;0.60;;
61685;SDS011;47592;45.904;8.978;2022-11-04T08:56:33;3.58;;;1.17;;
61685;SDS011;47592;45.904;8.978;2022-11-04T08:58:59;3.63;;;0.65;;
61685;SDS011;47592;45.904;8.978;2022-11-04T09:01:26;1.95;;;0.82;;
61685;SDS011;47592;45.904;8.978;2022-11-04T09:03:52;2.13;;;0.50;;
61685;SDS011;47592;45.904;8.978;2022-11-04T09:06:20;3.60;;;0.80;;
61685;SDS011;47592;45.904;8.978;2022-11-04T09:08:47;2.63;;;0.85;;
61685;SDS011;47592;45.904;8.978;2022-11-04T09:11:14;1.83;;;0.57;;
61685;SDS011;47592;45.904;8.978;2022-11-04T09:13:40;2.40;;;0.90;;
61685;SDS011;47592;45.904;8.978;2022-11-04T09:16:06;2.15;;;0.80;;
61685;SDS011;47592;45.904;8.978;2022-11-04T09:18:32;2.65;;;0.77;;
61685;SDS011;47592;45.904;8.978;2022-11-04T09:20:58;4.68;;;1.90;;
61685;SDS011;47592;45.904;8.978;2022-11-04T09:23:24;3.70;;;1.10;;
61685;SDS011;47592;45.904;8.978;2022-11-04T09:25:50;1.98;;;0.60;;
61685;SDS011;47592;45.904;8.978;2022-11-04T09:28:15;2.08;;;0.65;;
61685;SDS011;47592;45.904;8.978;2022-11-04T09:30:41;3.58;;;0.80;;
61685;SDS011;47592;45.904;8.978;2022-11-04T09:33:06;2.72;;;0.88;;
61685;SDS011;47592;45.904;8.978;2022-11-04T09:35:31;3.20;;;0.50;;
61685;SDS011;47592;45.904;8.978;2022-11-04T09:37:58;4.22;;;1.10;;
61685;SDS011;47592;45.904;8.978;2022-11-04T09:40:24;2.75;;;0.95;;
61685;SDS011;47592;45.904;8.978;2022-11-04T09:45:29;1.95;;;0.75;;
61685;SDS011;47592;45.904;8.978;2022-11-04T09:47:58;1.52;;;0.57;;
61685;SDS011;47592;45.904;8.978;2022-11-04T09:50:34;0.98;;;0.40;;
61685;SDS011;47592;45.904;8.978;2022-11-04T09:53:08;0.75;;;0.25;;
61685;SDS011;47592;45.904;8.978;2022-11-04T09:55:53;12.20;;;4.47;;
61685;SDS011;47592;45.904;8.978;2022-11-04T09:58:21;1.70;;;0.50;;
61685;SDS011;47592;45.904;8.978;2022-11-04T10:00:50;1.55;;;0.30;;
61685;SDS011;47592;45.904;8.978;2022-11-04T10:24:32;0.57;;;0.22;;
61685;SDS011;47592;45.904;8.978;2022-11-04T10:26:46;3.15;;;0.40;;
61685;SDS011;47592;45.904;8.978;2022-11-04T10:29:19;1.42;;;0.50;;
61685;SDS011;47592;45.904;8.978;2022-11-04T10:31:50;1.13;;;0.40;;
61685;SDS011;47592;45.904;8.978;2022-11-04T10:34:33;1.10;;;0.40;;
61685;SDS011;47592;45.904;8.978;2022-11-04T10:37:01;2.47;;;0.40;;
61685;SDS011;47592;45.904;8.978;2022-11-04T10:39:28;1.25;;;0.40;;
61685;SDS011;47592;45.904;8.978;2022-11-04T10:41:55;2.67;;;0.43;;
61685;SDS011;47592;45.904;8.978;2022-11-04T10:44:29;0.90;;;0.32;;
61685;SDS011;47592;45.904;8.978;2022-11-04T10:52:37;0.93;;;0.30;;
61685;SDS011;47592;45.904;8.978;2022-11-04T10:55:39;5.20;;;0.60;;
61685;SDS011;47592;45.904;8.978;2022-11-04T10:58:49;1.20;;;0.50;;
61685;SDS011;47592;45.904;8.978;2022-11-04T11:00:57;0.43;;;0.15;;
61685;SDS011;47592;45.904;8.978;2022-11-04T11:06:09;1.55;;;0.40;;
61685;SDS011;47592;45.904;8.978;2022-11-04T11:08:36;0.75;;;0.32;;
61685;SDS011;47592;45.904;8.978;2022-11-04T11:11:05;1.42;;;0.40;;
61685;SDS011;47592;45.904;8.978;2022-11-04T11:13:38;0.50;;;0.20;;
61685;SDS011;47592;45.904;8.978;2022-11-04T11:16:10;1.27;;;0.25;;
61685;SDS011;47592;45.904;8.978;2022-11-04T11:18:42;1.48;;;0.47;;
61685;SDS011;47592;45.904;8.978;2022-11-04T11:21:09;1.27;;;0.30;;
61685;SDS011;47592;45.904;8.978;2022-11-04T11:26:28;0.75;;;0.20;;
61685;SDS011;47592;45.904;8.978;2022-11-04T11:28:55;0.55;;;0.20;;
61685;SDS011;47592;45.904;8.978;2022-11-04T11:31:21;0.80;;;0.20;;
61685;SDS011;47592;45.904;8.978;2022-11-04T11:36:23;0.80;;;0.35;;
61685;SDS011;47592;45.904;8.978;2022-11-04T11:41:25;3.20;;;0.60;;
61685;SDS011;47592;45.904;8.978;2022-11-04T11:44:17;3.78;;;0.60;;
61685;SDS011;47592;45.904;8.978;2022-11-04T11:46:51;0.95;;;0.30;;
61685;SDS011;47592;45.904;8.978;2022-11-04T11:49:23;1.30;;;0.40;;
61685;SDS011;47592;45.904;8.978;2022-11-04T11:51:52;0.65;;;0.20;;
61685;SDS011;47592;45.904;8.978;2022-11-04T11:54:22;1.73;;;0.40;;
61685;SDS011;47592;45.904;8.978;2022-11-04T11:56:53;1.00;;;0.30;;
61685;SDS011;47592;45.904;8.978;2022-11-04T12:02:22;0.40;;;0.25;;
61685;SDS011;47592;45.904;8.978;2022-11-04T12:04:49;1.33;;;0.32;;
61685;SDS011;47592;45.904;8.978;2022-11-04T12:12:54;2.53;;;0.45;;
61685;SDS011;47592;45.904;8.978;2022-11-04T12:15:33;0.98;;;0.30;;
61685;SDS011;47592;45.904;8.978;2022-11-04T12:21:16;1.17;;;0.38;;
61685;SDS011;47592;45.904;8.978;2022-11-04T12:31:57;1.15;;;0.30;;
61685;SDS011;47592;45.904;8.978;2022-11-04T12:52:22;0.88;;;0.32;;
61685;SDS011;47592;45.904;8.978;2022-11-04T12:57:23;1.00;;;0.30;;
61685;SDS011;47592;45.904;8.978;2022-11-04T13:00:13;0.70;;;0.25;;
61685;SDS011;47592;45.904;8.978;2022-11-04T13:02:45;1.13;;;0.30;;
61685;SDS011;47592;45.904;8.978;2022-11-04T13:05:26;1.60;;;0.30;;
61685;SDS011;47592;45.904;8.978;2022-11-04T13:10:56;0.47;;;0.20;;
61685;SDS011;47592;45.904;8.978;2022-11-04T13:13:33;1.55;;;0.22;;
61685;SDS011;47592;45.904;8.978;2022-11-04T13:16:01;1.50;;;0.30;;
61685;SDS011;47592;45.904;8.978;2022-11-04T13:18:30;0.57;;;0.20;;
61685;SDS011;47592;45.904;8.978;2022-11-04T13:21:02;0.68;;;0.30;;
61685;SDS011;47592;45.904;8.978;2022-11-04T13:23:33;1.38;;;0.30;;
61685;SDS011;47592;45.904;8.978;2022-11-04T13:26:02;0.95;;;0.30;;
61685;SDS011;47592;45.904;8.978;2022-11-04T13:28:29;0.57;;;0.25;;
61685;SDS011;47592;45.904;8.978;2022-11-04T13:31:07;0.47;;;0.28;;
61685;SDS011;47592;45.904;8.978;2022-11-04T13:39:06;0.55;;;0.20;;
61685;SDS011;47592;45.904;8.978;2022-11-04T13:41:54;0.55;;;0.28;;
61685;SDS011;47592;45.904;8.978;2022-11-04T13:44:24;1.27;;;0.40;;
61685;SDS011;47592;45.904;8.978;2022-11-04T13:46:52;2.80;;;0.30;;
61685;SDS011;47592;45.904;8.978;2022-11-04T13:52:08;0.50;;;0.20;;
61685;SDS011;47592;45.904;8.978;2022-11-04T13:54:38;0.17;;;0.10;;
61685;SDS011;47592;45.904;8.978;2022-11-04T13:57:13;0.73;;;0.20;;
61685;SDS011;47592;45.904;8.978;2022-11-04T13:59:40;1.23;;;0.30;;
61685;SDS011;47592;45.904;8.978;2022-11-04T14:04:37;1.98;;;0.40;;
61685;SDS011;47592;45.904;8.978;2022-11-04T14:07:10;0.60;;;0.30;;
61685;SDS011;47592;45.904;8.978;2022-11-04T14:14:43;0.55;;;0.20;;
61685;SDS011;47592;45.904;8.978;2022-11-04T14:19:58;0.95;;;0.20;;
61685;SDS011;47592;45.904;8.978;2022-11-04T14:22:31;0.65;;;0.20;;
61685;SDS011;47592;45.904;8.978;2022-11-04T14:25:17;0.25;;;0.20;;
61685;SDS011;47592;45.904;8.978;2022-11-04T14:27:43;1.60;;;0.25;;
61685;SDS011;47592;45.904;8.978;2022-11-04T14:36:43;0.90;;;0.20;;
61685;SDS011;47592;45.904;8.978;2022-11-04T14:38:46;1.75;;;0.30;;
61685;SDS011;47592;45.904;8.978;2022-11-04T14:44:07;1.58;;;0.50;;
61685;SDS011;47592;45.904;8.978;2022-11-04T14:46:39;1.73;;;0.50;;
61685;SDS011;47592;45.904;8.978;2022-11-04T14:49:11;1.52;;;0.40;;
61685;SDS011;47592;45.904;8.978;2022-11-04T14:54:41;1.55;;;0.20;;
61685;SDS011;47592;45.904;8.978;2022-11-04T14:57:16;0.95;;;0.30;;
61685;SDS011;47592;45.904;8.978;2022-11-04T14:59:43;1.45;;;0.25;;
61685;SDS011;47592;45.904;8.978;2022-11-04T15:02:14;3.00;;;1.20;;
61685;SDS011;47592;45.904;8.978;2022-11-04T15:04:54;3.05;;;1.25;;
61685;SDS011;47592;45.904;8.978;2022-11-04T15:07:30;3.08;;;1.08;;
61685;SDS011;47592;45.904;8.978;2022-11-04T15:09:58;2.58;;;0.90;;
61685;SDS011;47592;45.904;8.978;2022-11-04T15:12:23;2.85;;;0.85;;
61685;SDS011;47592;45.904;8.978;2022-11-04T15:18:21;2.17;;;0.50;;
61685;SDS011;47592;45.904;8.978;2022-11-04T15:20:57;2.17;;;0.77;;
61685;SDS011;47592;45.904;8.978;2022-11-04T15:25:56;3.30;;;1.20;;
61685;SDS011;47592;45.904;8.978;2022-11-04T15:28:29;4.00;;;0.93;;
61685;SDS011;47592;45.904;8.978;2022-11-04T15:31:12;6.68;;;1.35;;
61685;SDS011;47592;45.904;8.978;2022-11-04T15:33:44;4.88;;;1.33;;
61685;SDS011;47592;45.904;8.978;2022-11-04T15:36:23;4.60;;;1.10;;
61685;SDS011;47592;45.904;8.978;2022-11-04T15:38:50;4.40;;;1.35;;
61685;SDS011;47592;45.904;8.978;2022-11-04T15:41:19;5.15;;;1.77;;
61685;SDS011;47592;45.904;8.978;2022-11-04T15:44:06;8.32;;;1.92;;
61685;SDS011;47592;45.904;8.978;2022-11-04T15:46:58;5.28;;;1.67;;
61685;SDS011;47592;45.904;8.978;2022-11-04T15:49:29;3.90;;;1.48;;
61685;SDS011;47592;45.904;8.978;2022-11-04T15:51:59;4.93;;;1.60;;
61685;SDS011;47592;45.904;8.978;2022-11-04T15:54:29;4.45;;;1.13;;
61685;SDS011;47592;45.904;8.978;2022-11-04T15:57:00;3.60;;;1.10;;
61685;SDS011;47592;45.904;8.978;2022-11-04T15:59:32;4.70;;;1.40;;
61685;SDS011;47592;45.904;8.978;2022-11-04T16:01:59;4.68;;;1.38;;
61685;SDS011;47592;45.904;8.978;2022-11-04T16:04:26;5.28;;;1.42;;
61685;SDS011;47592;45.904;8.978;2022-11-04T16:09:44;3.83;;;1.40;;
61685;SDS011;47592;45.904;8.978;2022-11-04T16:12:33;5.25;;;1.40;;
61685;SDS011;47592;45.904;8.978;2022-11-04T16:14:59;4.90;;;1.90;;
61685;SDS011;47592;45.904;8.978;2022-11-04T16:17:25;7.32;;;2.10;;
61685;SDS011;47592;45.904;8.978;2022-11-04T16:19:54;5.88;;;2.20;;
61685;SDS011;47592;45.904;8.978;2022-11-04T16:22:31;5.20;;;2.50;;
61685;SDS011;47592;45.904;8.978;2022-11-04T16:24:59;7.63;;;2.80;;
61685;SDS011;47592;45.904;8.978;2022-11-04T16:27:28;6.80;;;2.92;;
61685;SDS011;47592;45.904;8.978;2022-11-04T16:32:47;8.68;;;3.47;;
61685;SDS011;47592;45.904;8.978;2022-11-04T16:37:42;5.68;;;2.83;;
61685;SDS011;47592;45.904;8.978;2022-11-04T16:40:08;5.22;;;2.45;;
61685;SDS011;47592;45.904;8.978;2022-11-04T16:42:33;6.22;;;1.70;;
61685;SDS011;47592;45.904;8.978;2022-11-04T16:44:59;4.80;;;1.80;;
61685;SDS011;47592;45.904;8.978;2022-11-04T16:47:26;4.32;;;1.75;;
61685;SDS011;47592;45.904;8.978;2022-11-04T16:50:01;5.65;;;1.65;;
61685;SDS011;47592;45.904;8.978;2022-11-04T16:52:26;6.70;;;2.10;;
61685;SDS011;47592;45.904;8.978;2022-11-04T16:54:52;3.50;;;1.30;;
61685;SDS011;47592;45.904;8.978;2022-11-04T16:57:21;5.32;;;1.10;;
61685;SDS011;47592;45.904;8.978;2022-11-04T16:59:47;4.90;;;1.27;;
61685;SDS011;47592;45.904;8.978;2022-11-04T17:02:26;6.07;;;1.70;;
61685;SDS011;47592;45.904;8.978;2022-11-04T17:04:55;4.65;;;2.00;;
61685;SDS011;47592;45.904;8.978;2022-11-04T17:07:20;6.38;;;1.70;;
61685;SDS011;47592;45.904;8.978;2022-11-04T17:09:46;5.75;;;1.80;;
61685;SDS011;47592;45.904;8.978;2022-11-04T17:12:12;5.63;;;1.60;;
61685;SDS011;47592;45.904;8.978;2022-11-04T17:14:37;6.07;;;1.98;;
61685;SDS011;47592;45.904;8.978;2022-11-04T17:17:03;4.60;;;1.40;;
61685;SDS011;47592;45.904;8.978;2022-11-04T17:19:29;4.78;;;1.52;;
61685;SDS011;47592;45.904;8.978;2022-11-04T17:21:55;7.18;;;1.90;;
61685;SDS011;47592;45.904;8.978;2022-11-04T17:24:23;5.68;;;1.90;;
61685;SDS011;47592;45.904;8.978;2022-11-04T17:26:48;5.55;;;1.90;;
61685;SDS011;47592;45.904;8.978;2022-11-04T17:29:14;4.85;;;2.20;;
61685;SDS011;47592;45.904;8.978;2022-11-04T17:31:39;5.65;;;1.90;;
61685;SDS011;47592;45.904;8.978;2022-11-04T17:34:05;5.07;;;1.98;;
61685;SDS011;47592;45.904;8.978;2022-11-04T17:36:30;6.28;;;2.33;;
61685;SDS011;47592;45.904;8.978;2022-11-04T17:38:55;4.65;;;2.08;;
61685;SDS011;47592;45.904;8.978;2022-11-04T17:41:21;5.47;;;1.70;;
61685;SDS011;47592;45.904;8.978;2022-11-04T17:44:06;6.78;;;1.65;;
61685;SDS011;47592;45.904;8.978;2022-11-04T17:46:32;5.53;;;1.90;;
61685;SDS011;47592;45.904;8.978;2022-11-04T17:48:58;8.23;;;2.92;;
61685;SDS011;47592;45.904;8.978;2022-11-04T17:51:38;5.68;;;2.40;;
61685;SDS011;47592;45.904;8.978;2022-11-04T17:54:07;7.22;;;2.75;;
61685;SDS011;47592;45.904;8.978;2022-11-04T17:56:33;8.43;;;3.92;;
61685;SDS011;47592;45.904;8.978;2022-11-04T17:59:00;8.05;;;3.63;;
61685;SDS011;47592;45.904;8.978;2022-11-04T18:01:27;9.93;;;4.10;;
61685;SDS011;47592;45.904;8.978;2022-11-04T18:03:54;10.07;;;4.45;;